createdAt,value
2023-05-02T00:01:22.237Z,48.80
2023-05-02T00:04:00.404Z,49.01
2023-05-02T00:09:41.339Z,49.53
2023-05-02T00:12:23.505Z,49.55
2023-05-02T00:15:04.946Z,49.63
2023-05-02T00:17:49.202Z,49.88
2023-05-02T00:20:37.494Z,49.82
2023-05-02T00:23:13.912Z,49.71
2023-05-02T00:26:10.977Z,49.55
2023-05-02T00:31:50.150Z,49.79
2023-05-02T00:34:44.181Z,49.91
2023-05-02T00:37:29.624Z,49.94
2023-05-02T00:40:35.894Z,50.31
2023-05-02T00:43:07.547Z,49.77
2023-05-02T00:45:41.197Z,49.74
2023-05-02T00:48:15.173Z,49.97
2023-05-02T00:50:47.387Z,50.19
2023-05-02T00:53:20.218Z,50.59
2023-05-02T00:55:52.477Z,50.61
2023-05-02T00:58:26.052Z,50.47
2023-05-02T01:01:12.931Z,50.82
2023-05-02T01:03:55.981Z,50.56
2023-05-02T01:06:38.710Z,50.16
2023-05-02T01:09:24.053Z,50.39
2023-05-02T01:11:58.735Z,50.97
2023-05-02T01:14:32.820Z,50.82
2023-05-02T01:17:06.889Z,50.88
2023-05-02T01:19:41.566Z,50.94
2023-05-02T01:22:13.449Z,51.42
2023-05-02T01:24:56.605Z,51.21
2023-05-02T01:27:36.024Z,51.58
2023-05-02T01:30:09.801Z,52.02
2023-05-02T01:32:45.513Z,51.86
2023-05-02T01:35:18.811Z,51.87
2023-05-02T01:37:53.709Z,51.50
2023-05-02T01:40:27.442Z,51.92
2023-05-02T01:43:01.384Z,52.11
2023-05-02T01:45:35.383Z,52.31
2023-05-02T01:48:11.069Z,52.30
2023-05-02T01:50:46.635Z,52.54
2023-05-02T01:53:18.472Z,52.87
2023-05-02T01:55:52.417Z,52.86
2023-05-02T01:58:25.400Z,52.45
2023-05-02T02:00:58.541Z,52.62
2023-05-02T02:03:31.810Z,52.66
2023-05-02T02:06:04.951Z,52.46
2023-05-02T02:08:40.354Z,52.59
2023-05-02T02:11:18.871Z,52.84
2023-05-02T02:13:56.707Z,53.07
2023-05-02T02:16:32.018Z,52.97
2023-05-02T02:19:09.066Z,52.88
2023-05-02T02:21:44.150Z,52.97
2023-05-02T02:24:18.453Z,53.46
2023-05-02T02:26:50.953Z,53.57
2023-05-02T02:29:22.457Z,53.69
2023-05-02T02:31:54.454Z,53.19
2023-05-02T02:34:26.663Z,53.70
2023-05-02T02:37:03.020Z,53.38
2023-05-02T02:39:53.077Z,53.28
2023-05-02T02:42:32.926Z,53.75
2023-05-02T02:45:14.282Z,53.68
2023-05-02T02:47:52.040Z,53.38
2023-05-02T02:50:32.646Z,53.76
2023-05-02T02:53:07.138Z,54.00
2023-05-02T02:55:47.521Z,54.15
2023-05-02T02:58:33.407Z,53.69
2023-05-02T03:01:08.130Z,53.88
2023-05-02T03:03:38.168Z,53.86
2023-05-02T03:06:10.497Z,53.89
2023-05-02T03:08:46.109Z,54.50
2023-05-02T03:11:17.719Z,54.15
2023-05-02T03:13:49.278Z,54.28
2023-05-02T03:16:41.957Z,54.77
2023-05-02T03:19:13.765Z,54.70
2023-05-02T03:21:45.811Z,54.75
2023-05-02T03:24:19.218Z,55.11
2023-05-02T03:26:51.962Z,54.76
2023-05-02T03:29:24.837Z,54.43
2023-05-02T03:31:57.422Z,54.54
2023-05-02T03:34:29.494Z,54.52
2023-05-02T03:37:01.794Z,54.73
2023-05-02T03:39:36.305Z,54.80
2023-05-02T03:42:08.851Z,54.83
2023-05-02T03:44:43.084Z,55.13
2023-05-02T03:47:15.112Z,55.49
2023-05-02T03:50:36.427Z,55.44
2023-05-02T03:53:27.532Z,55.54
2023-05-02T03:56:25.123Z,55.45
2023-05-02T04:02:56.354Z,55.52
2023-05-02T04:05:48.513Z,55.40
2023-05-02T04:08:42.003Z,55.05
2023-05-02T04:11:18.807Z,54.77
2023-05-02T04:13:52.592Z,54.92
2023-05-02T04:16:25.568Z,54.93
2023-05-02T04:18:57.702Z,55.14
2023-05-02T04:21:30.213Z,55.25
2023-05-02T04:24:02.832Z,55.32
2023-05-02T04:26:34.325Z,54.90
2023-05-02T04:29:08.331Z,54.82
2023-05-02T04:31:40.007Z,54.96
2023-05-02T04:34:11.872Z,55.18
2023-05-02T04:36:46.903Z,55.17
2023-05-02T04:39:21.682Z,55.08
2023-05-02T04:41:51.864Z,55.32
2023-05-02T04:44:26.416Z,55.13
2023-05-02T04:46:59.046Z,55.13
2023-05-02T04:49:32.798Z,55.06
2023-05-02T04:52:04.932Z,54.45
2023-05-02T04:54:41.289Z,53.77
2023-05-02T04:57:12.969Z,53.38
2023-05-02T04:59:45.089Z,53.18
2023-05-02T05:02:17.509Z,53.41
2023-05-02T05:04:49.469Z,52.97
2023-05-02T05:07:22.692Z,52.32
2023-05-02T05:09:54.390Z,51.88
2023-05-02T05:12:26.401Z,52.55
2023-05-02T05:14:58.161Z,51.96
2023-05-02T05:17:30.582Z,51.98
2023-05-02T05:20:03.577Z,52.05
2023-05-02T05:22:41.050Z,51.68
2023-05-02T05:25:13.639Z,52.10
2023-05-02T05:27:47.138Z,51.67
2023-05-02T05:30:18.967Z,51.40
2023-05-02T05:32:51.522Z,51.24
2023-05-02T05:35:23.960Z,51.13
2023-05-02T05:37:55.924Z,51.06
2023-05-02T05:40:28.422Z,51.10
2023-05-02T05:43:00.959Z,51.07
2023-05-02T05:45:32.916Z,51.54
2023-05-02T05:48:04.645Z,51.44
2023-05-02T05:50:37.173Z,51.69
2023-05-02T05:53:08.652Z,51.54
2023-05-02T05:55:42.179Z,51.45
2023-05-02T05:58:14.325Z,51.13
2023-05-02T06:00:46.385Z,50.91
2023-05-02T06:03:18.436Z,50.27
2023-05-02T06:05:50.230Z,49.95
2023-05-02T06:08:22.007Z,49.73
2023-05-02T06:10:53.723Z,49.12
2023-05-02T06:13:25.395Z,48.28
2023-05-02T06:16:01.933Z,47.90
2023-05-02T06:18:33.651Z,47.90
2023-05-02T06:21:10.177Z,47.67
2023-05-02T06:23:42.845Z,47.19
2023-05-02T06:26:14.676Z,47.36
2023-05-02T06:28:46.712Z,47.16
2023-05-02T06:31:18.731Z,46.97
2023-05-02T06:33:50.872Z,46.97
2023-05-02T06:36:22.633Z,46.65
2023-05-02T06:38:54.642Z,46.29
2023-05-02T06:41:26.532Z,46.01
2023-05-02T06:43:58.967Z,45.61
2023-05-02T06:46:33.866Z,45.28
2023-05-02T06:49:05.664Z,44.73
2023-05-02T06:51:37.867Z,45.02
2023-05-02T06:54:09.495Z,44.93
2023-05-02T06:56:41.326Z,44.33
2023-05-02T06:59:13.204Z,44.08
2023-05-02T07:01:45.511Z,43.68
2023-05-02T07:04:17.629Z,43.45
2023-05-02T07:06:49.495Z,43.52
2023-05-02T07:09:21.347Z,43.51
2023-05-02T07:11:53.791Z,43.33
2023-05-02T07:14:26.052Z,42.91
2023-05-02T07:16:58.538Z,42.80
2023-05-02T07:19:31.303Z,42.68
2023-05-02T07:22:03.253Z,42.38
2023-05-02T07:24:34.892Z,42.33
2023-05-02T07:27:07.595Z,42.08
2023-05-02T07:29:39.309Z,41.82
2023-05-02T07:32:11.196Z,42.14
2023-05-02T07:34:42.753Z,42.55
2023-05-02T07:37:14.571Z,42.53
2023-05-02T07:39:46.019Z,42.24
2023-05-02T07:42:17.912Z,42.13
2023-05-02T07:44:49.742Z,41.87
2023-05-02T07:47:21.978Z,41.53
2023-05-02T07:49:57.035Z,41.83
2023-05-02T07:52:29.748Z,41.52
2023-05-02T07:55:01.689Z,41.61
2023-05-02T07:57:33.594Z,41.40
2023-05-02T08:00:08.245Z,41.50
2023-05-02T08:02:40.138Z,41.55
2023-05-02T08:05:12.512Z,41.58
2023-05-02T08:07:44.487Z,41.56
2023-05-02T08:10:16.317Z,41.54
2023-05-02T08:12:47.947Z,40.90
2023-05-02T08:15:20.151Z,40.74
2023-05-02T08:17:52.029Z,40.61
2023-05-02T08:20:23.828Z,40.53
2023-05-02T08:22:56.570Z,40.36
2023-05-02T08:25:30.817Z,40.21
2023-05-02T08:28:02.639Z,40.26
2023-05-02T08:30:34.179Z,39.82
2023-05-02T08:33:05.916Z,39.56
2023-05-02T08:35:37.627Z,39.77
2023-05-02T08:38:09.653Z,40.03
2023-05-02T08:40:43.095Z,40.15
2023-05-02T08:43:18.342Z,40.17
2023-05-02T08:45:51.564Z,40.61
2023-05-02T08:48:23.985Z,40.58
2023-05-02T08:50:56.496Z,40.50
2023-05-02T08:53:28.637Z,40.70
2023-05-02T08:56:00.716Z,40.80
2023-05-02T08:58:32.427Z,40.76
2023-05-02T09:01:06.198Z,40.80
2023-05-02T09:03:39.211Z,40.89
2023-05-02T09:06:13.101Z,40.85
2023-05-02T09:08:46.063Z,40.86
2023-05-02T09:11:18.776Z,40.76
2023-05-02T09:13:51.908Z,40.92
2023-05-02T09:16:25.962Z,41.08
2023-05-02T09:18:58.600Z,40.85
2023-05-02T09:21:40.347Z,40.88
2023-05-02T09:24:21.347Z,40.65
2023-05-02T09:27:03.409Z,40.69
2023-05-02T09:29:39.081Z,40.50
2023-05-02T09:32:10.877Z,40.33
2023-05-02T09:34:42.518Z,40.49
2023-05-02T09:37:34.577Z,40.73
2023-05-02T09:40:15.447Z,41.04
2023-05-02T09:42:47.583Z,41.09
2023-05-02T09:45:27.020Z,41.20
2023-05-02T09:48:05.277Z,41.03
2023-05-02T09:50:38.897Z,40.99
2023-05-02T09:53:12.292Z,41.22
2023-05-02T09:55:44.547Z,41.36
2023-05-02T09:58:26.007Z,41.60
2023-05-02T10:00:57.567Z,41.91
2023-05-02T10:03:30.207Z,41.97
2023-05-02T10:06:02.504Z,41.98
2023-05-02T10:08:36.496Z,41.75
2023-05-02T10:11:11.068Z,41.62
2023-05-02T10:13:45.088Z,42.13
2023-05-02T10:16:25.512Z,42.47
2023-05-02T10:19:16.090Z,42.74
2023-05-02T10:21:48.815Z,42.91
2023-05-02T10:24:21.462Z,43.29
2023-05-02T10:26:53.880Z,44.05
2023-05-02T10:29:25.837Z,44.54
2023-05-02T10:31:58.771Z,44.99
2023-05-02T10:34:34.102Z,45.04
2023-05-02T10:37:06.606Z,44.83
2023-05-02T10:39:38.937Z,45.00
2023-05-02T10:42:11.663Z,44.72
2023-05-02T10:44:43.686Z,44.76
2023-05-02T10:47:25.514Z,44.47
2023-05-02T10:49:59.550Z,44.78
2023-05-02T10:52:33.290Z,44.58
2023-05-02T10:55:22.193Z,44.51
2023-05-02T10:58:24.985Z,44.50
2023-05-02T11:01:16.551Z,44.50
2023-05-02T11:04:01.883Z,44.26
2023-05-02T11:06:35.632Z,44.20
2023-05-02T11:09:34.733Z,44.55
2023-05-02T11:12:08.865Z,44.75
2023-05-02T11:14:52.750Z,44.43
2023-05-02T11:17:24.158Z,44.57
2023-05-02T11:20:28.517Z,44.18
2023-05-02T11:23:27.400Z,44.49
2023-05-02T11:26:03.595Z,44.42
2023-05-02T11:28:48.548Z,44.18
2023-05-02T11:31:57.203Z,44.25
2023-05-02T11:34:30.224Z,44.22
2023-05-02T11:37:02.101Z,43.71
2023-05-02T11:39:35.079Z,43.18
2023-05-02T11:42:07.102Z,42.77
2023-05-02T11:45:01.465Z,42.51
2023-05-02T11:47:36.545Z,42.21
2023-05-02T11:50:12.187Z,41.99
2023-05-02T11:52:45.314Z,42.07
2023-05-02T11:55:18.459Z,42.35
2023-05-02T11:57:50.540Z,42.10
2023-05-02T12:00:28.530Z,42.22
2023-05-02T12:03:00.337Z,42.18
2023-05-02T12:05:35.865Z,41.79
2023-05-02T12:08:07.764Z,41.54
2023-05-02T12:10:42.288Z,41.44
2023-05-02T12:13:14.523Z,41.37
2023-05-02T12:15:46.250Z,41.10
2023-05-02T12:18:20.774Z,41.03
2023-05-02T12:20:54.803Z,40.90
2023-05-02T12:23:27.915Z,41.08
2023-05-02T12:26:00.401Z,41.26
2023-05-02T12:28:32.508Z,40.93
2023-05-02T12:31:13.987Z,40.56
2023-05-02T12:33:51.070Z,40.36
2023-05-02T12:36:22.770Z,40.20
2023-05-02T12:38:57.307Z,40.15
2023-05-02T12:41:36.622Z,40.21
2023-05-02T12:44:09.053Z,40.18
2023-05-02T12:46:59.278Z,40.11
2023-05-02T12:49:31.448Z,40.29
2023-05-02T12:52:03.174Z,40.31
2023-05-02T12:54:35.134Z,39.97
2023-05-02T12:57:06.823Z,39.86
2023-05-02T12:59:38.489Z,39.83
2023-05-02T13:02:10.922Z,39.73
2023-05-02T13:04:44.813Z,39.83
2023-05-02T13:07:16.494Z,39.68
2023-05-02T13:09:48.292Z,39.73
2023-05-02T13:12:20.059Z,39.75
2023-05-02T13:14:51.799Z,39.84
2023-05-02T13:17:23.572Z,39.60
2023-05-02T13:20:01.658Z,39.59
2023-05-02T13:22:35.290Z,39.31
2023-05-02T13:25:07.507Z,39.54
2023-05-02T13:27:39.086Z,39.60
2023-05-02T13:30:13.741Z,39.54
2023-05-02T13:32:45.805Z,39.85
2023-05-02T13:35:18.234Z,39.69
2023-05-02T13:37:49.962Z,39.85
2023-05-02T13:40:22.547Z,39.86
2023-05-02T13:42:53.848Z,39.45
2023-05-02T13:45:25.862Z,39.33
2023-05-02T13:47:57.863Z,39.48
2023-05-02T13:50:29.951Z,39.42
2023-05-02T13:53:01.657Z,39.13
2023-05-02T13:55:33.049Z,39.42
2023-05-02T13:58:05.087Z,39.56
2023-05-02T14:00:36.490Z,39.27
2023-05-02T14:03:08.527Z,39.34
2023-05-02T14:05:43.935Z,39.38
2023-05-02T14:08:18.665Z,39.21
2023-05-02T14:10:50.130Z,38.80
2023-05-02T14:13:21.949Z,38.84
2023-05-02T14:15:55.100Z,39.14
2023-05-02T14:18:26.772Z,39.12
2023-05-02T14:21:00.431Z,39.13
2023-05-02T14:23:32.209Z,39.34
2023-05-02T14:26:04.318Z,39.34
2023-05-02T14:28:35.460Z,39.15
2023-05-02T14:31:07.063Z,39.06
2023-05-02T14:33:38.834Z,39.00
2023-05-02T14:36:10.881Z,38.95
2023-05-02T14:38:42.421Z,39.03
2023-05-02T14:41:14.134Z,39.21
2023-05-02T14:43:46.709Z,39.11
2023-05-02T14:46:18.523Z,39.09
2023-05-02T14:48:50.234Z,39.34
2023-05-02T14:51:21.718Z,39.10
2023-05-02T14:53:54.196Z,39.20
2023-05-02T14:56:26.204Z,39.29
2023-05-02T14:58:57.770Z,39.36
2023-05-02T15:01:30.731Z,39.65
2023-05-02T15:04:06.728Z,39.72
2023-05-02T15:06:42.171Z,39.80
2023-05-02T15:09:13.815Z,40.47
2023-05-02T15:11:45.449Z,40.87
2023-05-02T15:14:16.904Z,40.75
2023-05-02T15:16:48.606Z,40.49
2023-05-02T15:19:19.923Z,40.52
2023-05-02T15:21:55.875Z,40.70
2023-05-02T15:24:27.988Z,40.74
2023-05-02T15:27:00.163Z,40.85
2023-05-02T15:29:31.504Z,41.30
2023-05-02T15:32:02.952Z,41.51
2023-05-02T15:34:34.529Z,41.78
2023-05-02T15:37:06.603Z,41.75
2023-05-02T15:39:38.360Z,41.27
2023-05-02T15:42:11.237Z,41.05
2023-05-02T15:44:42.852Z,41.13
2023-05-02T15:47:14.737Z,41.01
2023-05-02T15:49:46.873Z,41.42
2023-05-02T15:52:18.308Z,41.68
2023-05-02T15:54:57.809Z,41.70
2023-05-02T15:57:29.428Z,41.82
2023-05-02T16:00:02.763Z,41.90
2023-05-02T16:02:35.951Z,41.78
2023-05-02T16:05:09.656Z,41.95
2023-05-02T16:07:41.131Z,42.13
2023-05-02T16:10:13.875Z,42.03
2023-05-02T16:12:45.466Z,42.09
2023-05-02T16:15:17.532Z,42.08
2023-05-02T16:17:49.323Z,42.10
2023-05-02T16:20:21.936Z,41.94
2023-05-02T16:22:53.529Z,42.18
2023-05-02T16:25:25.677Z,42.32
2023-05-02T16:27:58.651Z,42.28
2023-05-02T16:30:30.591Z,42.35
2023-05-02T16:33:02.439Z,42.39
2023-05-02T16:35:34.125Z,42.53
2023-05-02T16:38:06.385Z,42.78
2023-05-02T16:40:38.680Z,42.85
2023-05-02T16:43:10.198Z,42.89
2023-05-02T16:45:42.820Z,42.96
2023-05-02T16:48:15.521Z,42.85
2023-05-02T16:50:47.356Z,42.73
2023-05-02T16:53:20.557Z,42.97
2023-05-02T16:55:52.249Z,43.17
2023-05-02T16:58:25.475Z,43.12
2023-05-02T17:00:57.439Z,42.77
2023-05-02T17:03:29.959Z,42.77
2023-05-02T17:06:03.859Z,42.90
2023-05-02T17:08:35.823Z,43.05
2023-05-02T17:11:08.957Z,42.96
2023-05-02T17:13:40.793Z,43.15
2023-05-02T17:16:12.537Z,43.44
2023-05-02T17:18:44.162Z,43.52
2023-05-02T17:21:16.141Z,43.64
2023-05-02T17:23:47.817Z,43.76
2023-05-02T17:26:19.620Z,43.52
2023-05-02T17:28:53.762Z,43.53
2023-05-02T17:31:25.755Z,43.46
2023-05-02T17:33:57.366Z,43.48
2023-05-02T17:36:28.849Z,43.47
2023-05-02T17:39:00.475Z,43.55
2023-05-02T17:41:32.867Z,43.76
2023-05-02T17:44:05.179Z,43.75
2023-05-02T17:46:38.129Z,43.80
2023-05-02T17:49:11.137Z,43.72
2023-05-02T17:51:42.860Z,43.81
2023-05-02T17:54:15.614Z,43.89
2023-05-02T17:56:47.927Z,43.81
2023-05-02T17:59:20.889Z,43.80
2023-05-02T18:01:53.028Z,43.76
2023-05-02T18:04:25.195Z,43.62
2023-05-02T18:06:57.359Z,43.65
2023-05-02T18:09:29.487Z,43.65
2023-05-02T18:12:04.926Z,43.65
2023-05-02T18:14:37.538Z,43.61
2023-05-02T18:17:10.059Z,43.33
2023-05-02T18:19:42.677Z,43.26
2023-05-02T18:22:24.116Z,43.37
2023-05-02T18:24:55.770Z,43.74
2023-05-02T18:27:29.186Z,44.05
2023-05-02T18:30:09.697Z,44.47
2023-05-02T18:32:46.346Z,45.25
2023-05-02T18:35:20.602Z,46.20
2023-05-02T18:37:53.184Z,46.49
2023-05-02T18:40:26.775Z,47.03
2023-05-02T18:42:59.554Z,46.97
2023-05-02T18:45:31.518Z,46.85
2023-05-02T18:48:04.767Z,46.75
2023-05-02T18:50:37.481Z,47.05
2023-05-02T18:53:12.869Z,47.44
2023-05-02T18:55:45.610Z,47.92
2023-05-02T18:58:18.140Z,48.20
2023-05-02T19:00:51.373Z,48.40
2023-05-02T19:03:27.632Z,48.56
2023-05-02T19:06:02.967Z,48.78
2023-05-02T19:08:40.644Z,48.86
2023-05-02T19:11:15.628Z,49.22
2023-05-02T19:13:50.425Z,49.55
2023-05-02T19:16:26.305Z,49.83
2023-05-02T19:19:01.370Z,49.79
2023-05-02T19:21:36.766Z,49.93
2023-05-02T19:24:08.112Z,50.55
2023-05-02T19:26:42.206Z,50.21
2023-05-02T19:29:15.208Z,50.47
2023-05-02T19:31:51.167Z,50.63
2023-05-02T19:34:23.979Z,51.13
2023-05-02T19:37:00.657Z,51.14
2023-05-02T19:39:33.018Z,50.95
2023-05-02T19:42:04.652Z,51.20
2023-05-02T19:44:37.600Z,51.98
2023-05-02T19:47:13.486Z,52.20
2023-05-02T19:49:45.641Z,52.28
2023-05-02T19:52:18.014Z,52.73
2023-05-02T19:54:54.644Z,53.11
2023-05-02T19:57:27.186Z,53.40
2023-05-02T19:59:58.762Z,53.23
2023-05-02T20:02:33.141Z,53.42
2023-05-02T20:05:05.959Z,53.31
2023-05-02T20:07:40.254Z,53.01
2023-05-02T20:10:14.880Z,53.50
2023-05-02T20:12:48.231Z,53.68
2023-05-02T20:15:21.771Z,54.24
2023-05-02T20:17:57.295Z,54.22
2023-05-02T20:20:29.912Z,54.60
2023-05-02T20:23:10.857Z,55.92
2023-05-02T20:25:43.263Z,57.13
2023-05-02T20:28:19.111Z,57.96
2023-05-02T20:30:52.241Z,58.62
2023-05-02T20:33:27.530Z,59.15
2023-05-02T20:36:02.404Z,59.02
2023-05-02T20:38:34.295Z,58.95
2023-05-02T20:41:10.916Z,59.54
2023-05-02T20:43:45.320Z,60.08
2023-05-02T20:46:21.095Z,60.30
2023-05-02T20:48:53.945Z,60.16
2023-05-02T20:51:25.596Z,60.56
2023-05-02T20:53:57.047Z,60.50
2023-05-02T20:56:28.830Z,60.82
2023-05-02T20:59:01.007Z,60.85
2023-05-02T21:01:33.839Z,61.14
2023-05-02T21:04:05.673Z,61.61
2023-05-02T21:06:37.519Z,61.75
2023-05-02T21:09:09.863Z,61.94
2023-05-02T21:11:41.206Z,62.10
2023-05-02T21:14:13.308Z,62.17
2023-05-02T21:16:45.399Z,62.29
2023-05-02T21:19:17.331Z,62.51
2023-05-02T21:21:49.512Z,62.67
2023-05-02T21:24:21.457Z,62.27
2023-05-02T21:26:53.187Z,62.01
2023-05-02T21:29:24.827Z,62.47
2023-05-02T21:31:56.814Z,62.30
2023-05-02T21:34:28.471Z,62.23
2023-05-02T21:37:00.488Z,62.37
2023-05-02T21:39:32.171Z,62.02
2023-05-02T21:42:03.800Z,61.92
2023-05-02T21:44:35.781Z,61.90
2023-05-02T21:47:07.819Z,61.83
2023-05-02T21:49:40.417Z,61.42
2023-05-02T21:52:12.267Z,61.15
2023-05-02T21:54:47.164Z,60.90
2023-05-02T21:57:19.544Z,61.01
2023-05-02T21:59:51.078Z,61.01
2023-05-02T22:02:24.075Z,60.76
2023-05-02T22:04:58.099Z,60.45
2023-05-02T22:07:29.743Z,60.39
2023-05-02T22:10:01.612Z,60.50
2023-05-02T22:12:33.415Z,60.91
2023-05-02T22:15:06.737Z,61.95
2023-05-02T22:17:42.799Z,62.43
2023-05-02T22:20:16.354Z,62.73
2023-05-02T22:22:48.204Z,63.46
2023-05-02T22:25:20.836Z,63.31
2023-05-02T22:27:52.575Z,63.89
2023-05-02T22:30:24.407Z,63.72
2023-05-02T22:32:55.825Z,63.88
2023-05-02T22:35:27.420Z,64.20
2023-05-02T22:38:01.025Z,64.45
2023-05-02T22:40:33.535Z,64.30
2023-05-02T22:43:05.225Z,64.83
2023-05-02T22:45:37.819Z,64.88
2023-05-02T22:48:10.396Z,64.98
2023-05-02T22:50:43.328Z,65.58
2023-05-02T22:53:15.123Z,65.49
2023-05-02T22:55:47.068Z,65.46
2023-05-02T22:58:18.627Z,66.26
2023-05-02T23:00:50.173Z,65.64
2023-05-02T23:03:22.155Z,65.69
2023-05-02T23:05:54.062Z,65.98
2023-05-02T23:08:25.506Z,66.91
2023-05-02T23:10:56.961Z,66.46
2023-05-02T23:13:29.074Z,66.84
2023-05-02T23:16:01.920Z,66.84
2023-05-02T23:18:34.121Z,66.77
2023-05-02T23:21:07.063Z,66.91
2023-05-02T23:23:39.121Z,66.95
2023-05-02T23:26:12.506Z,66.93
2023-05-02T23:28:44.416Z,66.24
2023-05-02T23:31:16.619Z,66.98
2023-05-02T23:33:48.509Z,66.93
2023-05-02T23:36:20.409Z,67.59
2023-05-02T23:38:52.284Z,67.53
2023-05-02T23:41:24.433Z,67.43
2023-05-02T23:43:56.052Z,67.47
2023-05-02T23:46:27.943Z,67.05
2023-05-02T23:48:59.526Z,67.31
2023-05-02T23:51:33.269Z,66.89
2023-05-02T23:54:04.691Z,66.96
2023-05-02T23:56:37.221Z,66.65
2023-05-02T23:59:11.005Z,66.71
